Du har inga inställningar för hoppväder.nu

Hoppväder.nu

Senast uppdaterat 00:36

UTC-tid

2019-06-25 kl. 22:36


Sol och måne

Solen går upp 4:07 och går ner 23:16 (beräknade cirkatider)
Nästa fullmåne blir om 20 dagar (2019-07-16)

METAR

ESGG (Landvetter)
(16 minuter sedan)
ESGG 252220Z 06003KT CAVOK 19/13 Q1021=



ESGP (Säve)
ESGP NIL=



ESIB (Såtenäs)
(16 minuter sedan)
ESIB 252220Z AUTO 07005KT 9999 SCT094/// 16/15 Q1021=



ESGT (Trollhättan/Vänersborg)
(16 minuter sedan)
ESGT 252220Z AUTO 32004KT 9999 FEW120/// BKN160/// 15/14 Q1021=






TAF

ESGG (Landvetter)
(306 minuter sedan)
ESGG 251730Z 2518/2618 25004KT CAVOK PROB40 2602/2612 4000 SHRA TS=



ESGP (Säve)
ESGP



ESIB (Såtenäs)
ESIB



ESGT (Trollhättan/Vänersborg)
(306 minuter sedan)
ESGT 251730Z 2518/2521 01006KT CAVOK=





Kodnycklar till TAF och METAR






LHP

(Vårgårda är område I4c i Norra delen)

Prognos är inte uppdaterad




Spotting

Hur fungerar spotthjälpen och Vindkartan?

Markvind är ca 0 m/s.



Vindkartan

Senast uppdaterad 00:36




All data kommer från LFV.se